createdAt,value
2018-11-14T00:00:32.422Z,9.80
2018-11-14T00:02:38.583Z,9.80
2018-11-14T00:04:46.292Z,9.70
2018-11-14T00:06:57.177Z,9.60
2018-11-14T00:09:05.380Z,9.60
2018-11-14T00:11:14.888Z,9.50
2018-11-14T00:13:24.419Z,9.40
2018-11-14T00:15:34.068Z,9.40
2018-11-14T00:17:47.089Z,9.40
2018-11-14T00:19:58.327Z,9.40
2018-11-14T00:22:11.445Z,9.50
2018-11-14T00:24:20.123Z,9.50
2018-11-14T00:26:32.340Z,9.40
2018-11-14T00:28:38.460Z,9.40
2018-11-14T00:30:47.273Z,9.40
2018-11-14T00:32:56.968Z,9.40
2018-11-14T00:35:06.859Z,9.30
2018-11-14T00:37:16.567Z,9.30
2018-11-14T00:39:21.582Z,9.30
2018-11-14T00:41:29.071Z,9.30
2018-11-14T00:43:35.073Z,9.30
2018-11-14T00:45:43.992Z,9.30
2018-11-14T00:47:52.445Z,9.20
2018-11-14T00:50:01.261Z,9.20
2018-11-14T00:52:15.354Z,9.20
2018-11-14T00:54:24.801Z,9.20
2018-11-14T00:56:35.277Z,9.10
2018-11-14T00:58:45.093Z,9.10
2018-11-14T01:00:54.639Z,9.10
2018-11-14T01:03:05.528Z,9.10
2018-11-14T01:05:21.133Z,9.10
2018-11-14T01:07:30.590Z,9.10
2018-11-14T01:09:36.934Z,9.00
2018-11-14T01:11:45.649Z,9.00
2018-11-14T01:13:54.156Z,9.00
2018-11-14T01:16:04.457Z,8.90
2018-11-14T01:18:13.594Z,8.90
2018-11-14T01:20:23.989Z,8.90
2018-11-14T01:22:31.745Z,8.90
2018-11-14T01:24:39.812Z,8.90
2018-11-14T01:26:48.885Z,8.90
2018-11-14T01:28:57.875Z,8.80
2018-11-14T01:31:09.476Z,8.80
2018-11-14T01:33:19.015Z,8.80
2018-11-14T01:35:25.607Z,8.80
2018-11-14T01:37:35.123Z,8.80
2018-11-14T01:39:41.857Z,8.70
2018-11-14T01:41:49.269Z,8.70
2018-11-14T01:43:59.731Z,8.70
2018-11-14T01:46:07.876Z,8.60
2018-11-14T01:48:20.169Z,8.60
2018-11-14T01:50:32.071Z,8.60
2018-11-14T01:52:39.122Z,8.60
2018-11-14T01:54:48.102Z,8.60
2018-11-14T01:56:59.047Z,8.60
2018-11-14T01:59:06.556Z,8.60
2018-11-14T02:01:14.816Z,8.60
2018-11-14T02:03:22.837Z,8.60
2018-11-14T02:05:32.109Z,8.60
2018-11-14T02:07:40.399Z,8.60
2018-11-14T02:09:50.014Z,8.50
2018-11-14T02:11:56.909Z,8.50
2018-11-14T02:14:07.586Z,8.50
2018-11-14T02:16:20.650Z,8.50
2018-11-14T02:18:28.885Z,8.50
2018-11-14T02:20:35.229Z,8.60
2018-11-14T02:22:43.445Z,8.70
2018-11-14T02:24:51.037Z,8.70
2018-11-14T02:26:59.733Z,8.80
2018-11-14T02:29:06.518Z,8.80
2018-11-14T02:31:11.660Z,8.90
2018-11-14T02:33:26.803Z,8.90
2018-11-14T02:35:37.825Z,8.90
2018-11-14T02:37:46.844Z,8.80
2018-11-14T02:39:54.341Z,8.80
2018-11-14T02:42:06.835Z,8.80
2018-11-14T02:44:18.336Z,8.80
2018-11-14T02:46:25.434Z,8.90
2018-11-14T02:48:38.813Z,8.70
2018-11-14T02:50:59.695Z,8.70
2018-11-14T02:53:07.257Z,8.70
2018-11-14T02:55:16.816Z,8.70
2018-11-14T02:57:26.076Z,8.70
2018-11-14T02:59:36.357Z,8.70
2018-11-14T03:01:45.757Z,8.70
2018-11-14T03:03:54.780Z,8.70
2018-11-14T03:06:09.734Z,8.70
2018-11-14T03:08:19.485Z,8.60
2018-11-14T03:10:29.275Z,8.60
2018-11-14T03:12:44.009Z,8.60
2018-11-14T03:14:53.302Z,8.70
2018-11-14T03:17:02.186Z,8.80
2018-11-14T03:19:15.728Z,8.80
2018-11-14T03:21:30.882Z,8.90
2018-11-14T03:23:38.064Z,8.90
2018-11-14T03:25:48.799Z,8.90
2018-11-14T03:27:56.260Z,8.90
2018-11-14T03:30:06.091Z,8.90
2018-11-14T03:32:16.866Z,8.90
2018-11-14T03:34:30.532Z,8.90
2018-11-14T03:36:39.359Z,8.90
2018-11-14T03:38:52.786Z,8.90
2018-11-14T03:41:05.883Z,8.90
2018-11-14T03:43:14.353Z,8.90
2018-11-14T03:45:30.057Z,8.80
2018-11-14T03:47:38.926Z,8.70
2018-11-14T03:49:49.995Z,8.50
2018-11-14T03:51:57.085Z,8.50
2018-11-14T03:54:04.526Z,8.50
2018-11-14T03:56:19.169Z,8.50
2018-11-14T03:58:28.204Z,8.40
2018-11-14T04:00:36.323Z,8.30
2018-11-14T04:02:49.292Z,8.10
2018-11-14T04:05:00.043Z,8.00
2018-11-14T04:07:09.509Z,8.00
2018-11-14T04:09:23.784Z,7.90
2018-11-14T04:11:30.164Z,8.00
2018-11-14T04:13:38.849Z,7.90
2018-11-14T04:15:44.806Z,7.90
2018-11-14T04:17:52.751Z,7.90
2018-11-14T04:19:58.917Z,7.80
2018-11-14T04:22:09.731Z,7.90
2018-11-14T04:24:19.183Z,8.00
2018-11-14T04:26:25.218Z,8.00
2018-11-14T04:28:34.367Z,7.80
2018-11-14T04:30:41.372Z,7.80
2018-11-14T04:32:48.250Z,8.00
2018-11-14T04:34:57.754Z,8.20
2018-11-14T04:37:08.360Z,8.20
2018-11-14T04:39:16.977Z,8.10
2018-11-14T04:41:23.041Z,8.00
2018-11-14T04:43:33.685Z,8.10
2018-11-14T04:45:41.707Z,8.20
2018-11-14T04:47:49.460Z,8.30
2018-11-14T04:49:58.560Z,8.30
2018-11-14T04:52:13.284Z,8.20
2018-11-14T04:54:25.020Z,8.10
2018-11-14T04:56:33.223Z,8.10
2018-11-14T04:58:45.299Z,8.20
2018-11-14T05:00:56.164Z,8.30
2018-11-14T05:03:07.221Z,8.50
2018-11-14T05:05:22.285Z,8.60
2018-11-14T05:07:34.062Z,8.60
2018-11-14T05:09:44.170Z,8.70
2018-11-14T05:11:55.738Z,8.70
2018-11-14T05:14:05.579Z,8.80
2018-11-14T05:16:18.345Z,8.90
2018-11-14T05:18:28.108Z,9.10
2018-11-14T05:20:40.412Z,9.30
2018-11-14T05:22:54.480Z,9.30
2018-11-14T05:25:03.276Z,9.30
2018-11-14T05:27:16.725Z,9.00
2018-11-14T05:29:26.305Z,9.30
2018-11-14T05:31:32.882Z,9.50
2018-11-14T05:33:41.275Z,9.60
2018-11-14T05:35:53.872Z,9.70
2018-11-14T05:38:06.790Z,9.70
2018-11-14T05:40:17.768Z,9.60
2018-11-14T05:42:26.246Z,9.20
2018-11-14T05:44:34.089Z,9.00
2018-11-14T05:46:45.190Z,8.60
2018-11-14T05:48:54.306Z,8.60
2018-11-14T05:51:05.957Z,8.60
2018-11-14T05:53:17.320Z,8.40
2018-11-14T05:57:47.345Z,8.00
2018-11-14T05:59:55.760Z,7.90
2018-11-14T06:02:04.246Z,7.90
2018-11-14T06:04:18.687Z,7.90
2018-11-14T06:06:27.941Z,8.00
2018-11-14T06:08:36.959Z,8.20
2018-11-14T06:10:48.152Z,8.20
2018-11-14T06:13:01.194Z,8.20
2018-11-14T06:15:16.164Z,8.20
2018-11-14T06:17:25.757Z,8.30
2018-11-14T06:19:35.501Z,8.20
2018-11-14T06:21:46.063Z,8.10
2018-11-14T06:24:03.222Z,8.20
2018-11-14T06:26:22.972Z,8.50
2018-11-14T06:28:36.648Z,8.70
2018-11-14T06:30:51.130Z,8.90
2018-11-14T06:33:08.003Z,8.90
2018-11-14T06:35:17.223Z,9.10
2018-11-14T06:37:26.301Z,9.20
2018-11-14T06:39:40.632Z,8.70
2018-11-14T06:41:49.713Z,8.10
2018-11-14T06:44:04.449Z,8.20
2018-11-14T06:46:18.716Z,8.00
2018-11-14T06:48:27.156Z,8.00
2018-11-14T06:50:34.439Z,7.80
2018-11-14T06:52:49.772Z,7.90
2018-11-14T06:55:01.985Z,8.30
2018-11-14T06:57:10.441Z,8.30
2018-11-14T06:59:26.503Z,8.00
2018-11-14T07:01:39.200Z,8.10
2018-11-14T07:06:04.519Z,8.20
2018-11-14T07:08:12.821Z,8.60
2018-11-14T07:10:23.141Z,8.90
2018-11-14T07:12:31.415Z,9.10
2018-11-14T07:14:38.933Z,9.00
2018-11-14T07:16:53.518Z,8.80
2018-11-14T07:19:02.943Z,9.00
2018-11-14T07:21:13.923Z,9.30
2018-11-14T07:23:35.425Z,9.50
2018-11-14T07:25:49.939Z,9.50
2018-11-14T07:28:09.232Z,9.40
2018-11-14T07:30:30.316Z,9.40
2018-11-14T07:32:41.217Z,9.50
2018-11-14T07:35:03.368Z,9.60
2018-11-14T07:37:14.768Z,9.30
2018-11-14T07:39:24.624Z,9.60
2018-11-14T07:44:00.600Z,9.90
2018-11-14T07:46:15.385Z,10.10
2018-11-14T07:48:27.212Z,10.30
2018-11-14T07:52:55.451Z,10.60
2018-11-14T07:57:35.473Z,10.40
2018-11-14T07:59:48.006Z,10.40
2018-11-14T08:01:53.598Z,10.60
2018-11-14T08:04:00.360Z,10.80
2018-11-14T08:06:04.521Z,10.90
2018-11-14T08:08:10.344Z,11.00
2018-11-14T08:10:15.186Z,11.00
2018-11-14T08:12:19.654Z,11.00
2018-11-14T08:14:25.153Z,11.10
2018-11-14T08:16:37.510Z,11.30
2018-11-14T08:18:48.175Z,11.50
2018-11-14T08:21:08.680Z,11.50
2018-11-14T08:23:19.397Z,11.60
2018-11-14T08:25:24.281Z,11.70
2018-11-14T08:27:29.483Z,11.70
2018-11-14T08:29:35.018Z,11.70
2018-11-14T08:32:25.786Z,11.90
2018-11-14T08:37:27.825Z,11.70
2018-11-14T08:39:35.495Z,11.50
2018-11-14T08:41:47.543Z,11.30
2018-11-14T08:44:00.189Z,11.20
2018-11-14T08:46:08.527Z,10.70
2018-11-14T08:48:24.816Z,10.20
2018-11-14T08:50:39.260Z,10.00
2018-11-14T08:52:54.319Z,9.60
2018-11-14T08:55:04.096Z,10.00
2018-11-14T08:57:12.245Z,10.40
2018-11-14T09:01:36.175Z,10.80
2018-11-14T09:03:46.506Z,10.70
2018-11-14T09:05:57.690Z,10.90
2018-11-14T09:08:05.804Z,11.20
2018-11-14T09:10:17.616Z,11.50
2018-11-14T09:12:30.882Z,11.50
2018-11-14T09:14:40.997Z,11.20
2018-11-14T09:16:53.193Z,11.20
2018-11-14T09:19:02.362Z,11.10
2018-11-14T09:21:11.175Z,11.10
2018-11-14T09:23:23.956Z,11.10
2018-11-14T09:25:42.108Z,11.10
2018-11-14T09:30:23.379Z,11.20
2018-11-14T09:32:35.248Z,11.10
2018-11-14T09:34:46.106Z,11.20
2018-11-14T09:37:16.480Z,11.40
2018-11-14T09:42:28.057Z,11.10
2018-11-14T09:44:56.275Z,11.10
2018-11-14T09:47:10.157Z,11.20
2018-11-14T09:49:21.952Z,11.30
2018-11-14T09:51:33.169Z,11.40
2018-11-14T09:53:44.936Z,11.40
2018-11-14T09:55:52.258Z,11.70
2018-11-14T09:58:06.921Z,11.60
2018-11-14T10:00:25.766Z,11.70
2018-11-14T10:02:48.986Z,11.90
2018-11-14T10:05:07.513Z,11.90
2018-11-14T10:07:11.858Z,11.90
2018-11-14T10:09:23.637Z,11.90
2018-11-14T10:11:38.678Z,11.80
2018-11-14T10:13:52.405Z,11.80
2018-11-14T10:16:06.300Z,11.80
2018-11-14T10:18:16.664Z,11.80
2018-11-14T10:20:26.951Z,11.80
2018-11-14T10:22:42.213Z,11.70
2018-11-14T10:24:53.770Z,11.50
2018-11-14T10:27:02.014Z,11.80
2018-11-14T10:29:19.116Z,12.20
2018-11-14T10:31:26.913Z,12.40
2018-11-14T10:33:39.211Z,12.50
2018-11-14T10:35:48.395Z,12.50
2018-11-14T10:37:58.612Z,12.60
2018-11-14T10:40:08.837Z,12.60
2018-11-14T10:42:15.261Z,12.60
2018-11-14T10:44:25.632Z,12.40
2018-11-14T10:46:39.553Z,12.40
2018-11-14T10:48:50.186Z,12.50
2018-11-14T10:51:01.780Z,12.60
2018-11-14T10:53:21.267Z,12.60
2018-11-14T10:58:01.641Z,12.80
2018-11-14T11:00:24.657Z,12.80
2018-11-14T11:02:37.730Z,12.50
2018-11-14T11:04:50.369Z,12.50
2018-11-14T11:07:02.761Z,12.50
2018-11-14T11:09:17.781Z,12.30
2018-11-14T11:11:32.719Z,12.40
2018-11-14T11:14:14.351Z,12.20
2018-11-14T11:18:48.737Z,12.10
2018-11-14T11:21:00.302Z,12.00
2018-11-14T11:23:11.137Z,11.90
2018-11-14T11:25:22.569Z,12.00
2018-11-14T11:27:34.381Z,11.90
2018-11-14T11:29:46.563Z,11.90
2018-11-14T11:31:59.826Z,11.90
2018-11-14T11:34:12.629Z,11.90
2018-11-14T11:36:27.676Z,12.00
2018-11-14T11:38:40.537Z,11.90
2018-11-14T11:40:48.545Z,11.60
2018-11-14T11:42:57.451Z,11.60
2018-11-14T11:45:07.702Z,11.30
2018-11-14T11:47:18.146Z,11.20
2018-11-14T11:49:30.709Z,11.50
2018-11-14T11:51:44.852Z,11.80
2018-11-14T11:53:56.321Z,11.90
2018-11-14T11:56:05.451Z,11.70
2018-11-14T11:58:17.885Z,11.80
2018-11-14T12:00:33.099Z,11.50
2018-11-14T12:02:47.984Z,11.30
2018-11-14T12:05:04.712Z,11.20
2018-11-14T12:07:17.846Z,11.10
2018-11-14T12:09:28.820Z,11.30
2018-11-14T12:11:45.846Z,11.70
2018-11-14T12:13:55.924Z,11.70
2018-11-14T12:16:13.120Z,11.70
2018-11-14T12:18:21.054Z,11.50
2018-11-14T12:20:35.078Z,11.40
2018-11-14T12:22:47.846Z,11.50
2018-11-14T12:24:59.279Z,11.60
2018-11-14T12:27:12.970Z,11.70
2018-11-14T12:29:24.649Z,11.90
2018-11-14T12:31:35.956Z,11.80
2018-11-14T12:33:47.448Z,12.00
2018-11-14T12:35:56.566Z,12.00
2018-11-14T12:38:09.458Z,11.70
2018-11-14T12:40:18.924Z,11.60
2018-11-14T12:42:29.085Z,11.60
2018-11-14T12:44:40.680Z,11.90
2018-11-14T12:46:52.023Z,11.70
2018-11-14T12:49:04.272Z,11.50
2018-11-14T12:51:16.011Z,11.40
2018-11-14T12:53:30.231Z,11.40
2018-11-14T12:55:40.031Z,11.40
2018-11-14T12:57:53.086Z,11.50
2018-11-14T13:00:04.057Z,11.40
2018-11-14T13:02:12.628Z,11.40
2018-11-14T13:04:21.214Z,11.60
2018-11-14T13:06:43.923Z,11.60
2018-11-14T13:08:53.947Z,11.70
2018-11-14T13:11:05.103Z,11.70
2018-11-14T13:13:14.022Z,11.60
2018-11-14T13:15:26.053Z,11.50
2018-11-14T13:17:48.084Z,11.80
2018-11-14T13:19:58.611Z,11.90
2018-11-14T13:22:07.669Z,12.00
2018-11-14T13:24:23.012Z,11.90
2018-11-14T13:26:32.174Z,11.90
2018-11-14T13:28:38.524Z,11.80
2018-11-14T13:30:50.877Z,11.80
2018-11-14T13:35:18.724Z,11.80
2018-11-14T13:37:28.388Z,11.70
2018-11-14T13:39:37.032Z,11.70
2018-11-14T13:41:49.549Z,11.90
2018-11-14T13:43:56.308Z,11.70
2018-11-14T13:46:04.912Z,11.70
2018-11-14T13:48:14.457Z,11.90
2018-11-14T13:50:25.328Z,11.90
2018-11-14T13:52:36.316Z,11.80
2018-11-14T13:54:46.227Z,11.90
2018-11-14T13:56:54.607Z,11.80
2018-11-14T13:59:07.671Z,12.00
2018-11-14T14:01:14.210Z,12.00
2018-11-14T14:03:28.115Z,11.90
2018-11-14T14:05:43.484Z,12.00
2018-11-14T14:07:54.950Z,11.90
2018-11-14T14:10:16.713Z,12.00
2018-11-14T14:12:29.058Z,12.00
2018-11-14T14:14:39.801Z,12.00
2018-11-14T14:16:53.356Z,12.20
2018-11-14T14:19:05.571Z,12.10
2018-11-14T14:21:16.101Z,12.30
2018-11-14T14:23:29.215Z,12.40
2018-11-14T14:25:41.738Z,12.30
2018-11-14T14:28:00.411Z,12.20
2018-11-14T14:30:23.440Z,12.30
2018-11-14T14:34:58.641Z,12.20
2018-11-14T14:37:09.715Z,12.20
2018-11-14T14:44:18.651Z,12.60
2018-11-14T14:46:26.484Z,12.60
2018-11-14T14:48:37.480Z,12.60
2018-11-14T14:50:53.229Z,12.90
2018-11-14T14:53:03.903Z,12.70
2018-11-14T14:55:15.098Z,12.80
2018-11-14T14:57:25.159Z,12.80
2018-11-14T14:59:37.538Z,12.80
2018-11-14T15:01:50.792Z,12.90
2018-11-14T15:04:00.810Z,12.90
2018-11-14T15:08:40.510Z,13.00
2018-11-14T15:10:50.195Z,13.10
2018-11-14T15:13:02.050Z,13.00
2018-11-14T15:15:12.928Z,13.10
2018-11-14T15:17:22.195Z,13.00
2018-11-14T15:19:35.938Z,13.00
2018-11-14T15:24:08.369Z,13.20
2018-11-14T15:26:19.064Z,13.20
2018-11-14T15:28:31.067Z,13.10
2018-11-14T15:30:40.111Z,12.90
2018-11-14T15:32:53.697Z,12.90
2018-11-14T15:37:50.970Z,12.40
2018-11-14T15:40:02.989Z,12.30
2018-11-14T15:42:12.793Z,12.40
2018-11-14T15:44:28.413Z,12.00
2018-11-14T15:46:38.219Z,12.00
2018-11-14T15:48:46.222Z,11.50
2018-11-14T15:50:57.433Z,11.50
2018-11-14T15:53:06.979Z,11.50
2018-11-14T15:55:22.502Z,11.40
2018-11-14T15:57:32.065Z,11.20
2018-11-14T15:59:47.334Z,11.10
2018-11-14T16:02:00.810Z,10.90
2018-11-14T16:04:18.377Z,10.80
2018-11-14T16:06:27.422Z,10.90
2018-11-14T16:08:43.811Z,11.00
2018-11-14T16:10:56.372Z,10.80
2018-11-14T16:13:08.211Z,10.70
2018-11-14T16:15:23.820Z,10.60
2018-11-14T16:17:40.005Z,10.50
2018-11-14T16:19:48.569Z,10.30
2018-11-14T16:21:58.490Z,10.20
2018-11-14T16:24:14.964Z,10.30
2018-11-14T16:26:25.140Z,10.20
2018-11-14T16:28:35.193Z,10.10
2018-11-14T16:30:51.253Z,10.20
2018-11-14T16:33:00.540Z,10.10
2018-11-14T16:35:10.696Z,10.10
2018-11-14T16:37:23.315Z,10.20
2018-11-14T16:39:38.655Z,10.30
2018-11-14T16:41:50.029Z,10.20
2018-11-14T16:44:02.991Z,10.20
2018-11-14T16:46:12.198Z,10.20
2018-11-14T16:48:22.845Z,10.30
2018-11-14T16:50:37.269Z,10.30
2018-11-14T16:52:45.700Z,10.10
2018-11-14T16:54:57.186Z,10.00
2018-11-14T16:57:09.245Z,9.90
2018-11-14T16:59:25.114Z,9.90
2018-11-14T17:01:35.221Z,9.90
2018-11-14T17:03:52.704Z,9.80
2018-11-14T17:06:09.422Z,9.90
2018-11-14T17:08:20.775Z,9.90
2018-11-14T17:10:38.030Z,10.00
2018-11-14T17:12:52.089Z,10.00
2018-11-14T17:15:04.129Z,9.80
2018-11-14T17:17:17.968Z,9.80
2018-11-14T17:19:34.515Z,9.80
2018-11-14T17:21:45.535Z,9.80
2018-11-14T17:23:58.625Z,9.80
2018-11-14T17:26:10.073Z,9.70
2018-11-14T17:28:19.305Z,9.60
2018-11-14T17:30:29.864Z,9.60
2018-11-14T17:32:47.433Z,9.80
2018-11-14T17:35:01.029Z,9.80
2018-11-14T17:39:31.730Z,9.90
2018-11-14T17:41:45.566Z,10.00
2018-11-14T17:44:02.728Z,10.20
2018-11-14T17:46:15.303Z,10.00
2018-11-14T17:48:23.823Z,10.00
2018-11-14T17:50:42.422Z,10.10
2018-11-14T17:52:54.121Z,10.10
2018-11-14T17:55:03.187Z,10.10
2018-11-14T17:57:21.419Z,10.20
2018-11-14T17:59:38.066Z,10.30
2018-11-14T18:01:54.589Z,10.30
2018-11-14T18:04:08.585Z,10.20
2018-11-14T18:06:17.861Z,10.20
2018-11-14T18:08:25.604Z,10.50
2018-11-14T18:10:36.368Z,10.50
2018-11-14T18:12:46.776Z,10.40
2018-11-14T18:15:03.162Z,10.40
2018-11-14T18:17:13.302Z,10.40
2018-11-14T18:19:23.546Z,10.40
2018-11-14T18:21:38.424Z,10.20
2018-11-14T18:23:51.437Z,10.40
2018-11-14T18:26:10.766Z,10.50
2018-11-14T18:28:24.144Z,10.50
2018-11-14T18:30:37.227Z,10.70
2018-11-14T18:32:45.878Z,10.60
2018-11-14T18:34:54.132Z,10.60
2018-11-14T18:37:07.808Z,10.60
2018-11-14T18:41:58.334Z,10.40
2018-11-14T18:44:12.054Z,10.70
2018-11-14T18:46:22.346Z,11.00
2018-11-14T18:48:37.676Z,11.10
2018-11-14T18:50:50.706Z,11.10
2018-11-14T18:52:58.191Z,11.00
2018-11-14T18:55:05.200Z,10.80
2018-11-14T18:57:17.486Z,10.60
2018-11-14T18:59:29.410Z,10.40
2018-11-14T19:01:39.828Z,10.30
2018-11-14T19:03:51.396Z,10.30
2018-11-14T19:06:22.515Z,10.30
2018-11-14T19:08:33.717Z,10.40
2018-11-14T19:10:45.047Z,10.40
2018-11-14T19:13:01.172Z,10.50
2018-11-14T19:15:25.476Z,10.50
2018-11-14T19:17:35.661Z,10.60
2018-11-14T19:19:46.229Z,10.70
2018-11-14T19:21:56.457Z,10.70
2018-11-14T19:24:10.860Z,10.60
2018-11-14T19:26:19.364Z,10.60
2018-11-14T19:28:34.773Z,10.60
2018-11-14T19:30:47.788Z,10.60
2018-11-14T19:32:57.538Z,10.70
2018-11-14T19:35:13.418Z,11.00
2018-11-14T19:37:26.488Z,11.00
2018-11-14T19:39:40.527Z,11.00
2018-11-14T19:41:53.354Z,11.20
2018-11-14T19:44:03.352Z,11.30
2018-11-14T19:46:14.973Z,11.30
2018-11-14T19:48:22.854Z,11.20
2018-11-14T19:50:32.442Z,11.40
2018-11-14T19:52:47.431Z,11.30
2018-11-14T19:54:59.141Z,11.40
2018-11-14T19:57:17.342Z,11.50
2018-11-14T19:59:25.524Z,11.50
2018-11-14T20:01:36.011Z,11.60
2018-11-14T20:03:43.877Z,11.40
2018-11-14T20:05:52.466Z,11.20
2018-11-14T20:10:21.859Z,11.20
2018-11-14T20:12:28.788Z,11.10
2018-11-14T20:14:49.343Z,11.30
2018-11-14T20:17:03.444Z,11.20
2018-11-14T20:19:16.852Z,11.30
2018-11-14T20:21:30.432Z,11.40
2018-11-14T20:23:39.223Z,11.10
2018-11-14T20:25:47.271Z,10.80
2018-11-14T20:27:58.137Z,10.80
2018-11-14T20:30:14.134Z,10.80
2018-11-14T20:32:21.987Z,10.90
2018-11-14T20:34:32.041Z,11.00
2018-11-14T20:36:40.535Z,11.10
2018-11-14T20:38:55.073Z,10.80
2018-11-14T20:41:04.492Z,10.70
2018-11-14T20:43:15.770Z,10.70
2018-11-14T20:45:31.010Z,10.70
2018-11-14T20:47:43.256Z,10.80
2018-11-14T20:49:51.060Z,11.10
2018-11-14T20:52:07.064Z,11.30
2018-11-14T20:56:37.284Z,11.20
2018-11-14T21:01:09.715Z,11.00
2018-11-14T21:03:16.911Z,11.10
2018-11-14T21:05:28.786Z,11.20
2018-11-14T21:07:36.511Z,11.10
2018-11-14T21:09:47.250Z,11.10
2018-11-14T21:11:57.901Z,11.00
2018-11-14T21:14:09.392Z,11.00
2018-11-14T21:16:20.414Z,11.10
2018-11-14T21:18:36.511Z,11.20
2018-11-14T21:20:50.980Z,11.20
2018-11-14T21:23:00.291Z,11.20
2018-11-14T21:25:13.497Z,11.20
2018-11-14T21:27:24.477Z,11.10
2018-11-14T21:29:33.886Z,11.10
2018-11-14T21:31:46.406Z,11.10
2018-11-14T21:33:57.361Z,11.20
2018-11-14T21:36:03.604Z,11.30
2018-11-14T21:38:17.099Z,11.20
2018-11-14T21:40:25.644Z,11.00
2018-11-14T21:42:35.308Z,11.00
2018-11-14T21:44:44.570Z,10.90
2018-11-14T21:46:53.417Z,10.90
2018-11-14T21:49:03.621Z,10.70
2018-11-14T21:51:18.924Z,10.70
2018-11-14T21:53:27.109Z,10.60
2018-11-14T21:55:39.878Z,10.60
2018-11-14T21:57:48.064Z,10.60
2018-11-14T21:59:56.885Z,10.50
2018-11-14T22:02:12.049Z,10.50
2018-11-14T22:04:22.741Z,10.60
2018-11-14T22:06:31.615Z,10.60
2018-11-14T22:08:43.597Z,10.70
2018-11-14T22:10:52.867Z,10.70
2018-11-14T22:13:00.241Z,10.70
2018-11-14T22:15:17.341Z,10.80
2018-11-14T22:17:28.720Z,10.90
2018-11-14T22:19:39.356Z,10.80
2018-11-14T22:21:47.121Z,10.70
2018-11-14T22:23:56.421Z,10.60
2018-11-14T22:26:04.232Z,10.60
2018-11-14T22:28:12.255Z,10.80
2018-11-14T22:30:26.625Z,10.90
2018-11-14T22:32:37.529Z,10.70
2018-11-14T22:34:52.074Z,10.50
2018-11-14T22:37:09.935Z,10.30
2018-11-14T22:39:19.320Z,10.10
2018-11-14T22:41:27.818Z,10.10
2018-11-14T22:43:39.168Z,10.00
2018-11-14T22:45:53.921Z,10.00
2018-11-14T22:48:02.387Z,9.90
2018-11-14T22:50:15.719Z,9.90
2018-11-14T22:52:27.088Z,9.90
2018-11-14T22:54:40.812Z,9.80
2018-11-14T22:56:59.986Z,9.80
2018-11-14T22:59:10.652Z,9.80
2018-11-14T23:01:24.790Z,9.80
2018-11-14T23:03:38.924Z,9.70
2018-11-14T23:05:49.444Z,9.70
2018-11-14T23:08:03.308Z,9.70
2018-11-14T23:10:12.294Z,9.70
2018-11-14T23:12:25.215Z,9.70
2018-11-14T23:14:33.886Z,9.60
2018-11-14T23:16:47.236Z,9.60
2018-11-14T23:18:58.020Z,9.60
2018-11-14T23:21:04.686Z,9.70
2018-11-14T23:23:17.316Z,9.60
2018-11-14T23:25:30.514Z,9.60
2018-11-14T23:27:39.133Z,9.70
2018-11-14T23:29:47.853Z,9.70
2018-11-14T23:31:59.837Z,9.70
2018-11-14T23:34:08.693Z,9.70
2018-11-14T23:36:20.438Z,9.70
2018-11-14T23:38:31.744Z,9.80
2018-11-14T23:40:43.609Z,9.70
2018-11-14T23:42:53.122Z,9.60
2018-11-14T23:45:03.081Z,9.50
2018-11-14T23:47:14.935Z,9.50
2018-11-14T23:49:25.560Z,9.50
2018-11-14T23:51:34.417Z,9.50
2018-11-14T23:53:48.464Z,9.60
2018-11-14T23:55:57.530Z,9.60
2018-11-14T23:58:07.093Z,9.50
